createdAt,value
2022-11-23T00:01:27.119Z,5.47
2022-11-23T00:03:57.228Z,6.07
2022-11-23T00:06:25.898Z,7.10
2022-11-23T00:08:54.341Z,5.00
2022-11-23T00:11:23.962Z,6.00
2022-11-23T00:13:51.924Z,6.28
2022-11-23T00:16:22.304Z,6.28
2022-11-23T00:18:52.004Z,5.75
2022-11-23T00:21:19.440Z,5.35
2022-11-23T00:23:47.031Z,6.15
2022-11-23T00:26:15.973Z,5.53
2022-11-23T00:28:43.876Z,5.10
2022-11-23T00:31:13.603Z,5.50
2022-11-23T00:33:41.140Z,6.38
2022-11-23T00:36:14.261Z,5.43
2022-11-23T00:38:43.429Z,5.65
2022-11-23T00:41:17.244Z,6.30
2022-11-23T00:43:44.809Z,5.60
2022-11-23T00:46:17.784Z,5.97
2022-11-23T00:48:46.694Z,5.63
2022-11-23T00:51:16.569Z,6.28
2022-11-23T00:53:44.519Z,5.97
2022-11-23T00:56:13.035Z,5.35
2022-11-23T00:58:40.474Z,5.50
2022-11-23T01:01:09.104Z,6.40
2022-11-23T01:03:38.497Z,5.47
2022-11-23T01:06:11.678Z,6.40
2022-11-23T01:08:39.928Z,5.88
2022-11-23T01:11:10.980Z,5.20
2022-11-23T01:13:40.142Z,6.35
2022-11-23T01:16:24.692Z,4.90
2022-11-23T01:18:57.317Z,5.63
2022-11-23T01:21:25.917Z,5.05
2022-11-23T01:23:53.799Z,10.32
2022-11-23T01:26:21.192Z,5.35
2022-11-23T01:28:48.985Z,4.97
2022-11-23T01:31:19.223Z,5.20
2022-11-23T01:33:46.971Z,4.65
2022-11-23T01:36:20.114Z,4.75
2022-11-23T01:38:48.128Z,4.88
2022-11-23T01:41:24.943Z,4.53
2022-11-23T01:43:52.671Z,4.45
2022-11-23T01:46:20.385Z,5.38
2022-11-23T01:49:08.070Z,4.85
2022-11-23T01:51:39.507Z,4.43
2022-11-23T01:54:24.818Z,3.53
2022-11-23T01:56:57.366Z,3.75
2022-11-23T01:59:26.938Z,3.80
2022-11-23T02:01:54.652Z,4.15
2022-11-23T02:04:29.708Z,3.50
2022-11-23T02:06:59.602Z,4.40
2022-11-23T02:09:31.243Z,3.38
2022-11-23T02:11:59.317Z,3.42
2022-11-23T02:14:26.840Z,3.22
2022-11-23T02:16:58.960Z,3.22
2022-11-23T02:19:54.535Z,2.90
2022-11-23T02:22:35.268Z,2.97
2022-11-23T02:25:10.905Z,2.60
2022-11-23T02:27:40.506Z,2.63
2022-11-23T02:30:11.860Z,2.60
2022-11-23T02:32:39.276Z,3.13
2022-11-23T02:35:06.760Z,2.85
2022-11-23T02:37:34.031Z,3.03
2022-11-23T02:40:04.648Z,2.58
2022-11-23T02:42:35.692Z,2.72
2022-11-23T02:45:26.733Z,3.50
2022-11-23T02:47:54.041Z,2.42
2022-11-23T02:50:21.800Z,3.08
2022-11-23T02:52:48.988Z,3.15
2022-11-23T02:55:16.385Z,3.83
2022-11-23T02:57:43.708Z,2.63
2022-11-23T03:00:12.424Z,3.10
2022-11-23T03:02:39.742Z,2.90
2022-11-23T03:05:07.484Z,3.83
2022-11-23T03:07:35.131Z,3.00
2022-11-23T03:10:02.504Z,3.00
2022-11-23T03:12:30.914Z,3.45
2022-11-23T03:14:59.489Z,2.70
2022-11-23T03:17:28.064Z,2.40
2022-11-23T03:19:55.334Z,3.22
2022-11-23T03:22:24.821Z,3.38
2022-11-23T03:24:53.782Z,3.88
2022-11-23T03:27:21.049Z,2.70
2022-11-23T03:29:48.432Z,3.08
2022-11-23T03:32:20.048Z,2.88
2022-11-23T03:34:50.973Z,2.58
2022-11-23T03:37:20.465Z,2.95
2022-11-23T03:39:48.425Z,2.22
2022-11-23T03:42:34.653Z,3.05
2022-11-23T03:45:02.130Z,2.78
2022-11-23T03:47:30.191Z,4.18
2022-11-23T03:49:57.591Z,3.35
2022-11-23T03:52:24.837Z,2.90
2022-11-23T03:54:52.133Z,3.15
2022-11-23T03:57:19.407Z,3.38
2022-11-23T03:59:47.698Z,3.22
2022-11-23T04:02:15.446Z,3.70
2022-11-23T04:04:50.907Z,2.85
2022-11-23T04:07:45.930Z,3.60
2022-11-23T04:10:17.997Z,3.75
2022-11-23T04:13:00.907Z,3.80
2022-11-23T04:15:28.998Z,3.35
2022-11-23T04:17:56.414Z,3.20
2022-11-23T04:20:24.215Z,3.28
2022-11-23T04:22:51.493Z,3.15
2022-11-23T04:25:19.272Z,3.45
2022-11-23T04:27:48.695Z,3.40
2022-11-23T04:30:16.124Z,4.05
2022-11-23T04:32:47.363Z,6.78
2022-11-23T04:35:15.350Z,4.05
2022-11-23T04:37:45.293Z,4.10
2022-11-23T04:40:14.067Z,3.90
2022-11-23T04:42:47.354Z,3.17
2022-11-23T04:45:15.032Z,3.53
2022-11-23T04:47:43.789Z,3.28
2022-11-23T04:50:14.257Z,3.65
2022-11-23T04:52:45.516Z,3.58
2022-11-23T04:55:18.188Z,3.25
2022-11-23T04:57:53.138Z,2.85
2022-11-23T05:00:20.605Z,3.88
2022-11-23T05:02:48.623Z,3.58
2022-11-23T05:05:21.087Z,3.30
2022-11-23T05:07:48.349Z,2.65
2022-11-23T05:10:18.031Z,2.60
2022-11-23T05:12:46.997Z,2.83
2022-11-23T05:15:14.711Z,4.13
2022-11-23T05:17:42.507Z,3.00
2022-11-23T05:20:16.563Z,3.30
2022-11-23T05:22:48.448Z,3.13
2022-11-23T05:25:20.109Z,3.58
2022-11-23T05:27:54.310Z,2.45
2022-11-23T05:30:22.116Z,3.35
2022-11-23T05:32:49.694Z,2.67
2022-11-23T05:35:18.785Z,2.83
2022-11-23T05:37:46.178Z,3.08
2022-11-23T05:40:14.089Z,4.30
2022-11-23T05:42:42.148Z,3.17
2022-11-23T05:45:15.618Z,3.60
2022-11-23T05:47:51.101Z,2.38
2022-11-23T05:50:25.273Z,2.90
2022-11-23T05:53:12.490Z,3.22
2022-11-23T05:55:41.172Z,3.25
2022-11-23T05:58:08.924Z,3.40
2022-11-23T06:00:36.880Z,4.50
2022-11-23T06:03:06.498Z,2.65
2022-11-23T06:05:33.996Z,3.85
2022-11-23T06:08:01.417Z,2.83
2022-11-23T06:10:28.659Z,2.45
2022-11-23T06:13:03.538Z,2.15
2022-11-23T06:15:31.792Z,2.83
2022-11-23T06:18:01.080Z,3.60
2022-11-23T06:20:36.792Z,2.83
2022-11-23T06:23:04.350Z,2.55
2022-11-23T06:25:31.787Z,2.50
2022-11-23T06:28:10.143Z,2.95
2022-11-23T06:30:47.128Z,1.75
2022-11-23T06:33:14.896Z,3.20
2022-11-23T06:35:59.623Z,2.13
2022-11-23T06:38:31.933Z,3.17
2022-11-23T06:41:03.822Z,2.25
2022-11-23T06:43:31.949Z,3.30
2022-11-23T06:46:05.154Z,2.30
2022-11-23T06:48:34.048Z,2.80
2022-11-23T06:51:02.115Z,2.63
2022-11-23T06:53:31.546Z,2.42
2022-11-23T06:56:03.872Z,1.45
2022-11-23T06:58:32.511Z,2.92
2022-11-23T07:01:07.350Z,2.88
2022-11-23T07:03:41.661Z,2.78
2022-11-23T07:06:25.499Z,3.35
2022-11-23T07:08:56.186Z,2.67
2022-11-23T07:14:12.245Z,3.83
2022-11-23T07:16:42.837Z,3.90
2022-11-23T07:19:10.729Z,2.78
2022-11-23T07:21:38.022Z,3.60
2022-11-23T07:24:06.197Z,3.65
2022-11-23T07:26:33.429Z,3.75
2022-11-23T07:29:01.879Z,2.42
2022-11-23T07:31:29.192Z,3.78
2022-11-23T07:33:56.589Z,3.65
2022-11-23T07:36:24.124Z,3.03
2022-11-23T07:38:51.458Z,1.95
2022-11-23T07:41:20.841Z,2.35
2022-11-23T07:43:57.885Z,2.53
2022-11-23T07:46:25.463Z,2.80
2022-11-23T07:48:54.466Z,1.67
2022-11-23T07:51:21.841Z,2.30
2022-11-23T07:53:49.204Z,2.25
2022-11-23T07:56:16.517Z,1.75
2022-11-23T07:58:43.813Z,1.80
2022-11-23T08:01:18.358Z,1.52
2022-11-23T08:03:46.949Z,1.90
2022-11-23T08:06:15.356Z,2.05
2022-11-23T08:08:43.606Z,1.52
2022-11-23T08:11:14.580Z,1.35
2022-11-23T08:13:41.873Z,1.27
2022-11-23T08:16:09.173Z,1.10
2022-11-23T08:18:36.740Z,0.93
2022-11-23T08:21:04.453Z,1.48
2022-11-23T08:23:31.733Z,1.17
2022-11-23T08:25:59.053Z,0.85
2022-11-23T08:28:26.368Z,1.30
2022-11-23T08:30:53.623Z,0.65
2022-11-23T08:33:20.884Z,0.80
2022-11-23T08:35:48.184Z,0.50
2022-11-23T08:38:15.523Z,0.90
2022-11-23T08:40:42.744Z,0.73
2022-11-23T08:43:10.046Z,0.52
2022-11-23T08:45:37.321Z,0.70
2022-11-23T08:48:04.993Z,0.52
2022-11-23T08:50:34.538Z,0.77
2022-11-23T08:53:01.791Z,0.90
2022-11-23T08:55:29.281Z,0.77
2022-11-23T08:57:59.628Z,0.60
2022-11-23T09:00:28.063Z,0.73
2022-11-23T09:02:58.201Z,0.77
2022-11-23T09:05:26.428Z,1.52
2022-11-23T09:07:53.885Z,0.80
2022-11-23T09:10:21.432Z,0.75
2022-11-23T09:12:49.222Z,0.60
2022-11-23T09:15:16.795Z,1.20
2022-11-23T09:17:44.320Z,0.90
2022-11-23T09:20:12.610Z,0.80
2022-11-23T09:22:39.849Z,0.73
2022-11-23T09:25:07.790Z,0.80
2022-11-23T09:27:35.075Z,0.90
2022-11-23T09:30:03.757Z,0.65
2022-11-23T09:32:32.493Z,0.63
2022-11-23T09:34:59.692Z,0.93
2022-11-23T09:37:26.937Z,0.60
2022-11-23T09:39:54.350Z,1.27
2022-11-23T09:42:38.896Z,0.52
2022-11-23T09:45:35.117Z,1.10
2022-11-23T09:48:24.681Z,3.03
2022-11-23T09:51:08.701Z,1.55
2022-11-23T09:53:45.559Z,1.38
2022-11-23T09:56:34.015Z,1.20
2022-11-23T09:59:12.757Z,1.08
2022-11-23T10:01:40.878Z,1.45
2022-11-23T10:04:19.919Z,1.30
2022-11-23T10:07:00.931Z,1.77
2022-11-23T10:09:51.971Z,0.80
2022-11-23T10:12:46.395Z,1.60
2022-11-23T10:15:33.615Z,1.23
2022-11-23T10:18:25.485Z,0.93
2022-11-23T10:21:05.117Z,1.08
2022-11-23T10:24:01.950Z,1.50
2022-11-23T10:26:33.840Z,1.63
2022-11-23T10:29:15.715Z,1.33
2022-11-23T10:31:53.965Z,0.88
2022-11-23T10:35:00.499Z,1.50
2022-11-23T10:37:27.771Z,1.10
2022-11-23T10:39:55.248Z,1.20
2022-11-23T10:42:45.061Z,0.98
2022-11-23T10:45:26.698Z,1.75
2022-11-23T10:48:00.311Z,1.23
2022-11-23T10:50:37.261Z,1.08
2022-11-23T10:53:23.551Z,1.30
2022-11-23T10:55:59.304Z,1.13
2022-11-23T10:58:34.995Z,1.73
2022-11-23T11:01:05.027Z,1.17
2022-11-23T11:03:34.446Z,0.80
2022-11-23T11:06:10.403Z,0.95
2022-11-23T11:09:21.141Z,1.70
2022-11-23T11:11:52.687Z,1.65
2022-11-23T11:14:24.840Z,1.73
2022-11-23T11:17:00.522Z,1.20
2022-11-23T11:19:35.690Z,1.65
2022-11-23T11:22:25.167Z,1.85
2022-11-23T11:24:53.394Z,1.45
2022-11-23T11:27:26.593Z,0.50
2022-11-23T11:29:57.936Z,0.65
2022-11-23T11:33:01.922Z,1.70
2022-11-23T11:35:34.606Z,1.73
2022-11-23T11:38:25.483Z,2.05
2022-11-23T11:40:53.167Z,1.50
2022-11-23T11:43:37.592Z,2.80
2022-11-23T11:46:35.418Z,2.67
2022-11-23T11:49:37.083Z,1.80
2022-11-23T11:52:15.329Z,1.13
2022-11-23T11:55:11.630Z,2.10
2022-11-23T11:57:47.545Z,3.35
2022-11-23T12:00:19.018Z,1.70
2022-11-23T12:02:57.705Z,1.33
2022-11-23T12:05:40.413Z,1.58
2022-11-23T12:08:25.875Z,1.45
2022-11-23T12:10:56.899Z,2.05
2022-11-23T12:13:29.702Z,3.50
2022-11-23T12:16:23.294Z,2.22
2022-11-23T12:18:59.113Z,1.55
2022-11-23T12:21:32.236Z,2.40
2022-11-23T12:24:08.029Z,3.63
2022-11-23T12:26:59.071Z,1.63
2022-11-23T12:29:51.450Z,1.42
2022-11-23T12:32:49.042Z,1.80
2022-11-23T12:36:04.873Z,2.97
2022-11-23T12:39:03.133Z,3.53
2022-11-23T12:42:05.534Z,2.63
2022-11-23T12:44:38.677Z,3.75
2022-11-23T12:47:35.071Z,2.85
2022-11-23T12:50:23.477Z,4.35
2022-11-23T12:53:23.487Z,3.78
2022-11-23T12:56:03.148Z,2.85
2022-11-23T12:58:32.442Z,3.22
2022-11-23T13:01:08.747Z,2.45
2022-11-23T13:04:13.813Z,2.97
2022-11-23T13:07:30.549Z,2.03
2022-11-23T13:10:26.680Z,2.90
2022-11-23T13:13:06.980Z,3.35
2022-11-23T13:15:45.965Z,2.22
2022-11-23T13:21:24.148Z,2.65
2022-11-23T13:23:51.545Z,2.95
2022-11-23T13:26:24.238Z,2.80
2022-11-23T13:29:00.364Z,3.85
2022-11-23T13:31:33.478Z,1.90
2022-11-23T13:34:24.098Z,2.38
2022-11-23T13:37:17.094Z,2.67
2022-11-23T13:39:45.017Z,0.90
2022-11-23T13:42:13.524Z,2.58
2022-11-23T13:44:40.876Z,2.22
2022-11-23T13:47:15.932Z,2.10
2022-11-23T13:49:50.260Z,2.90
2022-11-23T13:52:23.673Z,2.42
2022-11-23T13:54:55.148Z,2.53
2022-11-23T13:57:23.437Z,2.47
2022-11-23T13:59:50.888Z,2.03
2022-11-23T14:02:28.722Z,3.10
2022-11-23T14:05:33.478Z,2.97
2022-11-23T14:08:02.999Z,2.85
2022-11-23T14:10:32.077Z,2.45
2022-11-23T14:13:11.543Z,3.30
2022-11-23T14:15:41.308Z,3.22
2022-11-23T14:18:27.704Z,2.63
2022-11-23T14:20:54.961Z,2.00
2022-11-23T14:23:42.869Z,4.30
2022-11-23T14:26:33.671Z,2.15
2022-11-23T14:29:23.989Z,1.63
2022-11-23T14:31:57.641Z,1.90
2022-11-23T14:34:41.029Z,2.08
2022-11-23T14:37:11.332Z,2.75
2022-11-23T14:39:44.221Z,2.72
2022-11-23T14:42:21.378Z,2.22
2022-11-23T14:44:50.792Z,3.05
2022-11-23T14:47:30.334Z,1.90
2022-11-23T14:49:58.351Z,2.22
2022-11-23T14:52:33.186Z,2.88
2022-11-23T14:55:03.879Z,3.22
2022-11-23T14:57:46.489Z,2.65
2022-11-23T15:00:29.154Z,3.40
2022-11-23T15:03:15.385Z,3.10
2022-11-23T15:05:57.014Z,1.30
2022-11-23T15:08:31.881Z,4.43
2022-11-23T15:11:12.346Z,2.38
2022-11-23T15:13:53.361Z,1.40
2022-11-23T15:16:22.349Z,2.17
2022-11-23T15:18:49.977Z,2.05
2022-11-23T15:21:26.938Z,2.20
2022-11-23T15:23:57.785Z,2.85
2022-11-23T15:29:35.577Z,3.42
2022-11-23T15:32:30.662Z,2.58
2022-11-23T15:35:02.665Z,1.20
2022-11-23T15:37:32.451Z,2.53
2022-11-23T15:40:00.423Z,2.20
2022-11-23T15:42:28.453Z,1.55
2022-11-23T15:44:56.671Z,2.10
2022-11-23T15:47:28.121Z,3.78
2022-11-23T15:50:01.465Z,2.03
2022-11-23T15:52:36.201Z,2.55
2022-11-23T15:55:10.118Z,2.53
2022-11-23T15:57:39.473Z,2.92
2022-11-23T16:00:09.426Z,2.50
2022-11-23T16:02:39.727Z,1.98
2022-11-23T16:05:19.087Z,2.17
2022-11-23T16:07:51.893Z,2.30
2022-11-23T16:10:23.115Z,2.75
2022-11-23T16:12:59.648Z,1.85
2022-11-23T16:15:44.477Z,2.40
2022-11-23T16:18:18.007Z,2.00
2022-11-23T16:21:07.238Z,2.38
2022-11-23T16:24:01.007Z,2.22
2022-11-23T16:26:32.469Z,2.90
2022-11-23T16:29:00.400Z,2.20
2022-11-23T16:31:36.864Z,2.83
2022-11-23T16:34:15.690Z,3.30
2022-11-23T16:36:43.223Z,3.60
2022-11-23T16:39:11.104Z,1.77
2022-11-23T16:41:38.423Z,2.70
2022-11-23T16:44:05.682Z,3.58
2022-11-23T16:46:33.312Z,4.68
2022-11-23T16:49:01.339Z,2.97
2022-11-23T16:51:28.741Z,1.67
2022-11-23T16:54:14.484Z,3.25
2022-11-23T16:56:45.064Z,2.88
2022-11-23T16:59:18.502Z,2.63
2022-11-23T17:01:55.546Z,3.88
2022-11-23T17:04:25.245Z,6.55
2022-11-23T17:06:52.560Z,3.17
2022-11-23T17:09:19.863Z,3.13
2022-11-23T17:11:50.787Z,2.92
2022-11-23T17:14:19.692Z,4.22
2022-11-23T17:16:48.104Z,3.65
2022-11-23T17:19:17.058Z,4.28
2022-11-23T17:21:44.738Z,2.55
2022-11-23T17:24:13.625Z,2.55
2022-11-23T17:26:44.345Z,4.43
2022-11-23T17:29:19.452Z,3.92
2022-11-23T17:31:48.102Z,3.20
2022-11-23T17:34:16.163Z,3.55
2022-11-23T17:36:45.512Z,2.33
2022-11-23T17:39:25.149Z,1.90
2022-11-23T17:41:52.561Z,2.08
2022-11-23T17:44:20.029Z,3.88
2022-11-23T17:46:47.799Z,4.60
2022-11-23T17:49:17.917Z,4.05
2022-11-23T17:51:45.515Z,4.22
2022-11-23T17:54:13.269Z,5.10
2022-11-23T17:56:40.389Z,3.17
2022-11-23T17:59:08.670Z,2.60
2022-11-23T18:01:35.949Z,2.92
2022-11-23T18:04:04.876Z,3.70
2022-11-23T18:06:32.681Z,4.05
2022-11-23T18:08:59.982Z,3.35
2022-11-23T18:11:28.539Z,4.10
2022-11-23T18:13:55.869Z,3.65
2022-11-23T18:16:23.390Z,2.83
2022-11-23T18:18:51.092Z,3.90
2022-11-23T18:21:18.838Z,3.85
2022-11-23T18:23:46.356Z,4.05
2022-11-23T18:26:25.859Z,3.78
2022-11-23T18:28:53.632Z,2.78
2022-11-23T18:31:21.045Z,3.85
2022-11-23T18:33:48.350Z,4.28
2022-11-23T18:36:15.936Z,4.53
2022-11-23T18:38:46.488Z,4.00
2022-11-23T18:41:16.393Z,4.10
2022-11-23T18:43:44.677Z,5.07
2022-11-23T18:46:19.522Z,5.85
2022-11-23T18:48:48.693Z,4.40
2022-11-23T18:51:17.516Z,4.20
2022-11-23T18:53:47.427Z,6.10
2022-11-23T18:56:14.784Z,5.35
2022-11-23T18:58:44.544Z,5.50
2022-11-23T19:01:20.531Z,4.22
2022-11-23T19:03:50.225Z,6.20
2022-11-23T19:06:19.918Z,4.72
2022-11-23T19:08:49.961Z,4.82
2022-11-23T19:11:23.016Z,5.60
2022-11-23T19:13:53.340Z,5.13
2022-11-23T19:16:23.513Z,5.72
2022-11-23T19:18:56.664Z,4.60
2022-11-23T19:21:28.682Z,5.15
2022-11-23T19:23:57.361Z,4.75
2022-11-23T19:26:25.780Z,5.40
2022-11-23T19:28:53.825Z,4.00
2022-11-23T19:31:27.212Z,5.90
2022-11-23T19:33:58.371Z,3.92
2022-11-23T19:36:26.132Z,2.38
2022-11-23T19:38:55.218Z,5.40
2022-11-23T19:41:26.731Z,3.03
2022-11-23T19:43:59.249Z,5.97
2022-11-23T19:46:27.205Z,4.70
2022-11-23T19:48:57.112Z,4.10
2022-11-23T19:51:25.369Z,3.60
2022-11-23T19:53:54.627Z,4.88
2022-11-23T19:56:24.106Z,3.40
2022-11-23T19:58:53.277Z,5.25
2022-11-23T20:01:22.464Z,4.38
2022-11-23T20:03:52.032Z,4.55
2022-11-23T20:06:25.268Z,4.90
2022-11-23T20:09:04.360Z,3.90
2022-11-23T20:11:33.539Z,4.45
2022-11-23T20:14:01.589Z,4.22
2022-11-23T20:16:31.723Z,4.18
2022-11-23T20:19:01.299Z,4.47
2022-11-23T20:21:29.606Z,3.30
2022-11-23T20:24:12.181Z,3.75
2022-11-23T20:26:40.940Z,3.85
2022-11-23T20:29:10.632Z,3.58
2022-11-23T20:31:38.099Z,3.28
2022-11-23T20:39:20.322Z,3.67
2022-11-23T20:41:49.647Z,3.17
2022-11-23T20:44:17.153Z,3.63
2022-11-23T20:49:31.988Z,3.30
2022-11-23T20:52:00.371Z,3.78
2022-11-23T20:54:27.988Z,2.78
2022-11-23T20:56:55.235Z,4.93
2022-11-23T20:59:23.811Z,4.97
2022-11-23T21:01:51.562Z,2.78
2022-11-23T21:04:18.818Z,3.40
2022-11-23T21:06:46.032Z,3.35
2022-11-23T21:09:13.319Z,4.05
2022-11-23T21:11:59.411Z,3.78
2022-11-23T21:14:31.483Z,3.88
2022-11-23T21:17:00.557Z,5.43
2022-11-23T21:19:33.042Z,4.00
2022-11-23T21:22:05.292Z,1.38
2022-11-23T21:24:34.873Z,5.35
2022-11-23T21:27:04.270Z,4.43
2022-11-23T21:29:31.763Z,4.75
2022-11-23T21:31:59.213Z,6.85
2022-11-23T21:34:28.565Z,5.32
2022-11-23T21:36:56.921Z,3.25
2022-11-23T21:39:24.822Z,4.30
2022-11-23T21:41:53.722Z,4.97
2022-11-23T21:44:22.744Z,4.65
2022-11-23T21:46:50.393Z,3.75
2022-11-23T21:49:17.667Z,3.92
2022-11-23T21:51:45.820Z,5.72
2022-11-23T21:54:16.432Z,4.05
2022-11-23T21:56:45.654Z,5.18
2022-11-23T21:59:13.363Z,5.10
2022-11-23T22:01:40.816Z,5.55
2022-11-23T22:04:10.993Z,4.40
2022-11-23T22:06:39.168Z,3.38
2022-11-23T22:09:09.359Z,4.80
2022-11-23T22:11:40.890Z,5.45
2022-11-23T22:14:13.478Z,4.30
2022-11-23T22:16:42.986Z,4.45
2022-11-23T22:19:11.993Z,4.35
2022-11-23T22:21:41.116Z,4.57
2022-11-23T22:24:13.238Z,3.30
2022-11-23T22:26:40.878Z,4.28
2022-11-23T22:29:08.353Z,3.70
2022-11-23T22:31:36.123Z,3.60
2022-11-23T22:34:05.734Z,3.97
2022-11-23T22:36:33.081Z,3.40
2022-11-23T22:39:02.793Z,6.68
2022-11-23T22:41:36.168Z,4.55
2022-11-23T22:44:08.332Z,4.38
2022-11-23T22:46:36.139Z,4.18
2022-11-23T22:49:03.666Z,5.40
2022-11-23T22:51:31.065Z,3.30
2022-11-23T22:53:59.853Z,4.00
2022-11-23T22:56:28.830Z,4.30
2022-11-23T22:58:56.513Z,4.10
2022-11-23T23:01:26.824Z,3.85
2022-11-23T23:03:56.425Z,4.20
2022-11-23T23:06:26.462Z,3.85
2022-11-23T23:08:58.951Z,4.32
2022-11-23T23:11:28.390Z,3.67
2022-11-23T23:13:56.431Z,4.32
2022-11-23T23:16:24.754Z,5.22
2022-11-23T23:18:54.154Z,4.88
2022-11-23T23:21:22.105Z,4.25
2022-11-23T23:23:51.898Z,4.88
2022-11-23T23:26:21.929Z,3.40
2022-11-23T23:28:53.093Z,1.50
2022-11-23T23:31:20.437Z,1.48
2022-11-23T23:33:48.024Z,2.42
2022-11-23T23:36:17.550Z,2.17
2022-11-23T23:38:44.787Z,1.02
2022-11-23T23:41:13.494Z,1.67
2022-11-23T23:43:41.603Z,2.13
2022-11-23T23:46:11.848Z,1.48
2022-11-23T23:48:40.230Z,1.45
2022-11-23T23:51:14.816Z,1.05
2022-11-23T23:53:42.608Z,1.08
2022-11-23T23:56:18.563Z,1.20
2022-11-23T23:58:46.338Z,1.88
